Back to Top

Language: 

My Weather Underground Personal Weather Station Historical Data with Graphs...

Delerius Weather Station Historical Data
Daily Summary for September 22, 2017 Units:  Metric    English   Both
« Previous Day
Next Day »
Daily Weekly Monthly Yearly Custom
  High: Low: Average:
Temperature: 16.6 °C 4.3 °C 11.2 °C
Dew Point: 11.5 °C 3.4 °C 8.6 °C
Humidity: 98 % 60 % 85 %
Wind Speed: 20.9 km/h 0 km/h 7.6 km/h
Wind Gust: 37 km/h - -
Wind:- - South
Pressure: 1019.5 hPa 1017.5 hPa -
Precipitation: 1.02 mm    
Historical Graphs
 
 
Tabular Data for September 22, 2017
Time Temperature Dew Point Pressure Wind Wind Speed Wind Gust Humidity Rainfall Rate (Hourly) solar Conditions
00:04 7.9 °C 6.7 °C 1017.5 hPa West 1.6 km/h 8 km/h 92 % 0 mm 0 W/m2
00:09 7.9 °C 6.7 °C 1017.8 hPa WNW 3.2 km/h 9.7 km/h 92 % 0 mm 0 W/m2
00:14 7.9 °C 6.8 °C 1017.8 hPa WNW 6.4 km/h 12.9 km/h 93 % 0 mm 0 W/m2
00:19 8.1 °C 7.1 °C 1017.8 hPa NW 8 km/h 14.5 km/h 93 % 0 mm 0 W/m2
00:24 8.2 °C 7.1 °C 1017.8 hPa WNW 8 km/h 14.5 km/h 93 % 0 mm 0 W/m2
00:29 8.2 °C 7.1 °C 1017.8 hPa WNW 6.4 km/h 11.3 km/h 93 % 0 mm 0 W/m2
00:34 8.2 °C 7.1 °C 1017.8 hPa WNW 4.8 km/h 11.3 km/h 93 % 0 mm 0 W/m2
00:39 8.1 °C 6.9 °C 1017.8 hPa West 1.6 km/h 8 km/h 92 % 0 mm 0 W/m2
00:44 7.9 °C 6.7 °C 1017.8 hPa Calm   3.2 km/h 92 % 0 mm 0 W/m2
00:49 7.7 °C 6.5 °C 1018.2 hPa Calm     92 % 0 mm 0 W/m2
00:54 7.6 °C 6.4 °C 1018.2 hPa Calm     92 % 0 mm 0 W/m2
00:59 7.4 °C 6.2 °C 1018.2 hPa Calm     92 % 0 mm 0 W/m2
01:04 7.3 °C 6.1 °C 1018.2 hPa Calm     92 % 0 mm 0 W/m2
01:09 7.3 °C 6.2 °C 1018.2 hPa Calm     93 % 0 mm 0 W/m2
01:15 7.3 °C 6.2 °C 1018.2 hPa Calm   3.2 km/h 93 % 0 mm 0 W/m2
01:20 7.3 °C 6.2 °C 1018.2 hPa Calm   3.2 km/h 93 % 0 mm 0 W/m2
01:25 7.3 °C 6.2 °C 1018.2 hPa Calm   1.6 km/h 93 % 0 mm 0 W/m2
01:30 7.4 °C 6.5 °C 1018.2 hPa Calm   3.2 km/h 94 % 0 mm 0 W/m2
01:35 7.4 °C 6.3 °C 1018.2 hPa Calm   3.2 km/h 93 % 0 mm 0 W/m2
01:40 7.3 °C 6.2 °C 1018.5 hPa Calm     93 % 0 mm 0 W/m2
01:45 7.2 °C 6.2 °C 1018.5 hPa Calm     93 % 0 mm 0 W/m2
01:50 7.1 °C 6.1 °C 1018.5 hPa Calm     93 % 0 mm 0 W/m2
01:55 7.1 °C 6.1 °C 1018.5 hPa Calm   6.4 km/h 93 % 0 mm 0 W/m2
02:00 6.9 °C 5.8 °C 1018.5 hPa Calm   6.4 km/h 93 % 0 mm 0 W/m2
02:05 6.8 °C 5.7 °C 1018.5 hPa Calm   3.2 km/h 93 % 0 mm 0 W/m2
02:10 6.7 °C 5.7 °C 1018.5 hPa West 1.6 km/h 6.4 km/h 93 % 0 mm 0 W/m2
02:15 6.7 °C 5.8 °C 1018.5 hPa West 1.6 km/h 6.4 km/h 94 % 0 mm 0 W/m2
02:20 6.7 °C 5.8 °C 1018.5 hPa Calm   1.6 km/h 94 % 0 mm 0 W/m2
02:25 6.7 °C 5.8 °C 1018.5 hPa Calm   1.6 km/h 94 % 0 mm 0 W/m2
02:30 6.6 °C 5.6 °C 1018.5 hPa Calm     93 % 0 mm 0 W/m2
02:35 6.5 °C 5.4 °C 1018.5 hPa Calm     93 % 0 mm 0 W/m2
02:40 6.4 °C 5.5 °C 1018.5 hPa Calm   3.2 km/h 94 % 0 mm 0 W/m2
02:45 6.4 °C 5.5 °C 1018.5 hPa West 1.6 km/h 6.4 km/h 94 % 0 mm 0 W/m2
02:50 6.6 °C 5.7 °C 1018.5 hPa West 4.8 km/h 9.7 km/h 94 % 0 mm 0 W/m2
02:55 6.6 °C 5.7 °C 1018.5 hPa West 4.8 km/h 9.7 km/h 94 % 0 mm 0 W/m2
03:00 6.6 °C 5.7 °C 1018.2 hPa West 4.8 km/h 8 km/h 94 % 0 mm 0 W/m2
03:05 6.7 °C 5.9 °C 1018.2 hPa West 3.2 km/h 8 km/h 95 % 0 mm 0 W/m2
03:10 6.6 °C 5.7 °C 1018.5 hPa Calm   4.8 km/h 94 % 0 mm 0 W/m2
03:15 6.5 °C 5.6 °C 1018.5 hPa Calm     94 % 0 mm 0 W/m2
03:20 6.4 °C 5.5 °C 1018.2 hPa Calm   3.2 km/h 94 % 0 mm 0 W/m2
03:25 6.3 °C 5.4 °C 1018.2 hPa Calm   3.2 km/h 94 % 0 mm 0 W/m2
03:30 6.1 °C 5.2 °C 1018.2 hPa Calm     94 % 0 mm 0 W/m2
03:35 6.1 °C 5.2 °C 1018.2 hPa Calm   1.6 km/h 94 % 0 mm 0 W/m2
03:40 6.1 °C 5.2 °C 1018.5 hPa Calm   1.6 km/h 94 % 0 mm 0 W/m2
03:45 6.2 °C 5.4 °C 1018.2 hPa Calm   6.4 km/h 95 % 0 mm 0 W/m2
03:50 6.2 °C 5.4 °C 1018.5 hPa Calm   6.4 km/h 95 % 0 mm 0 W/m2
03:55 6.1 °C 5.2 °C 1018.5 hPa Calm     94 % 0 mm 0 W/m2
04:00 6.1 °C 5.2 °C 1018.5 hPa Calm     94 % 0 mm 0 W/m2
04:05 5.9 °C 5 °C 1018.5 hPa Calm     94 % 0 mm 0 W/m2
04:10 5.8 °C 4.9 °C 1018.5 hPa Calm     94 % 0 mm 0 W/m2
04:16 5.8 °C 4.9 °C 1018.5 hPa Calm   3.2 km/h 94 % 0 mm 0 W/m2
04:21 5.8 °C 5.1 °C 1018.5 hPa Calm   3.2 km/h 95 % 0 mm 0 W/m2
04:26 5.8 °C 5.1 °C 1018.5 hPa Calm   4.8 km/h 95 % 0 mm 0 W/m2
04:31 5.8 °C 5.1 °C 1018.5 hPa Calm   4.8 km/h 95 % 0 mm 0 W/m2
04:36 5.8 °C 5.1 °C 1018.5 hPa Calm   1.6 km/h 95 % 0 mm 0 W/m2
04:41 5.8 °C 5.1 °C 1018.5 hPa Calm   3.2 km/h 95 % 0 mm 0 W/m2
04:46 5.8 °C 5.1 °C 1018.5 hPa Calm   3.2 km/h 95 % 0 mm 0 W/m2
04:51 5.9 °C 5.2 °C 1018.5 hPa Calm   3.2 km/h 95 % 0 mm 0 W/m2
04:56 5.9 °C 5.2 °C 1018.5 hPa Calm   3.2 km/h 95 % 0 mm 0 W/m2
05:01 6 °C 5.3 °C 1018.5 hPa Calm   3.2 km/h 95 % 0 mm 0 W/m2
05:06 6.1 °C 5.3 °C 1018.5 hPa Calm   1.6 km/h 95 % 0 mm 0 W/m2
05:11 6 °C 5.3 °C 1018.5 hPa Calm     95 % 0 mm 0 W/m2
05:16 5.9 °C 5.2 °C 1018.5 hPa Calm     95 % 0 mm 0 W/m2
05:21 5.7 °C 4.8 °C 1018.5 hPa Calm     94 % 0 mm 0 W/m2
05:26 5.4 °C 4.5 °C 1018.5 hPa Calm   4.8 km/h 94 % 0 mm 0 W/m2
05:31 5.3 °C 4.6 °C 1018.5 hPa West 1.6 km/h 6.4 km/h 95 % 0 mm 0 W/m2
05:32 5.3 °C 4.6 °C 1018.5 hPa West 3.2 km/h 6.4 km/h 95 % 0 mm 0 W/m2
05:37 5.3 °C 4.6 °C 1018.5 hPa West 1.6 km/h 6.4 km/h 95 % 0 mm 0 W/m2
05:42 5.3 °C 4.6 °C 1018.5 hPa Calm   3.2 km/h 95 % 0 mm 0 W/m2
05:47 5.3 °C 4.6 °C 1018.5 hPa Calm     95 % 0 mm 0 W/m2
05:52 5.2 °C 4.4 °C 1018.8 hPa Calm     95 % 0 mm 0 W/m2
05:57 5.1 °C 4.4 °C 1018.8 hPa West 1.6 km/h 6.4 km/h 95 % 0 mm 0 W/m2
06:02 5.1 °C 4.4 °C 1018.5 hPa West 1.6 km/h 6.4 km/h 95 % 0 mm 0 W/m2
06:07 5.1 °C 4.4 °C 1018.8 hPa West 1.6 km/h 6.4 km/h 95 % 0 mm 0 W/m2
06:12 5.2 °C 4.6 °C 1018.8 hPa West 4.8 km/h 8 km/h 96 % 0 mm 0 W/m2
06:17 5.2 °C 4.6 °C 1018.8 hPa West 3.2 km/h 8 km/h 96 % 0 mm 0 W/m2
06:22 5.2 °C 4.4 °C 1018.8 hPa Calm   3.2 km/h 95 % 0 mm 0 W/m2
06:27 4.9 °C 4.2 °C 1018.8 hPa Calm     95 % 0 mm 0 W/m2
06:32 4.7 °C 3.8 °C 1018.8 hPa Calm     94 % 0 mm 0 W/m2
06:37 4.5 °C 3.6 °C 1018.8 hPa Calm     94 % 0 mm 0 W/m2
06:42 4.3 °C 3.4 °C 1018.8 hPa Calm     94 % 0 mm 0 W/m2
06:47 4.3 °C 3.6 °C 1018.8 hPa Calm     95 % 0 mm 0 W/m2
06:52 4.3 °C 3.6 °C 1019.2 hPa Calm     95 % 0 mm 5 W/m2
06:57 4.3 °C 3.6 °C 1019.2 hPa Calm     95 % 0 mm 7 W/m2
07:02 4.3 °C 3.6 °C 1019.2 hPa Calm     95 % 0 mm 9 W/m2
07:07 4.3 °C 3.6 °C 1019.2 hPa Calm     95 % 0 mm 11 W/m2
07:12 4.4 °C 3.8 °C 1019.2 hPa Calm     96 % 0 mm 12 W/m2
07:17 4.5 °C 3.9 °C 1019.2 hPa Calm     96 % 0 mm 14 W/m2
07:22 4.7 °C 4.1 °C 1019.2 hPa Calm     96 % 0 mm 16 W/m2
07:27 4.8 °C 4.2 °C 1019.2 hPa Calm     96 % 0 mm 18 W/m2
07:32 4.8 °C 4.2 °C 1019.2 hPa Calm     96 % 0 mm 19 W/m2
07:37 4.8 °C 4.2 °C 1019.2 hPa Calm     96 % 0 mm 21 W/m2
07:42 4.8 °C 4.2 °C 1019.2 hPa Calm     96 % 0 mm 23 W/m2
07:47 4.9 °C 4.3 °C 1019.2 hPa Calm     96 % 0 mm 91 W/m2
07:52 5.2 °C 4.8 °C 1019.2 hPa Calm     97 % 0 mm 125 W/m2
07:57 5.8 °C 5.3 °C 1019.2 hPa Calm     97 % 0 mm 137 W/m2
08:02 6.3 °C 5.8 °C 1019.2 hPa Calm     97 % 0 mm 149 W/m2
08:07 6.8 °C 6.3 °C 1019.2 hPa Calm   1.6 km/h 97 % 0 mm 162 W/m2
08:12 7.3 °C 6.8 °C 1019.2 hPa Calm   1.6 km/h 97 % 0 mm 172 W/m2
08:17 7.8 °C 7.5 °C 1019.2 hPa Calm     98 % 0 mm 183 W/m2
08:22 8.3 °C 7.8 °C 1019.2 hPa Calm     97 % 0 mm 195 W/m2
08:27 8.7 °C 8.3 °C 1019.2 hPa Calm     97 % 0 mm 206 W/m2
08:32 9 °C 8.4 °C 1019.2 hPa Calm     96 % 0 mm 218 W/m2
08:37 9.4 °C 8.7 °C 1019.2 hPa Calm     95 % 0 mm 230 W/m2
08:42 9.9 °C 9 °C 1019.2 hPa Calm     94 % 0 mm 244 W/m2
08:47 10.3 °C 9.1 °C 1019.2 hPa Calm   3.2 km/h 92 % 0 mm 255 W/m2
08:52 10.5 °C 9.1 °C 1019.2 hPa Calm   3.2 km/h 91 % 0 mm 267 W/m2
08:57 10.8 °C 9.2 °C 1019.2 hPa Calm   6.4 km/h 90 % 0 mm 278 W/m2
09:03 11.1 °C 9.2 °C 1019.2 hPa Calm   6.4 km/h 88 % 0 mm 290 W/m2
09:08 11.5 °C 9.4 °C 1019.2 hPa Calm   3.2 km/h 87 % 0 mm 301 W/m2
09:13 11.6 °C 9.3 °C 1019.2 hPa Calm   3.2 km/h 86 % 0 mm 313 W/m2
09:18 11.7 °C 9.3 °C 1019.2 hPa SSE 1.6 km/h 8 km/h 85 % 0 mm 325 W/m2
09:23 11.7 °C 9.4 °C 1019.5 hPa SSE 6.4 km/h 12.9 km/h 86 % 0 mm 338 W/m2
09:28 11.8 °C 9.3 °C 1019.5 hPa SSE 8 km/h 12.9 km/h 85 % 0 mm 346 W/m2
09:33 11.9 °C 9.4 °C 1019.5 hPa SSE 8 km/h 12.9 km/h 85 % 0 mm 359 W/m2
09:38 11.9 °C 9.4 °C 1019.5 hPa SSE 6.4 km/h 12.9 km/h 85 % 0 mm 373 W/m2
09:43 12.1 °C 9.7 °C 1019.5 hPa SSE 6.4 km/h 12.9 km/h 85 % 0 mm 381 W/m2
09:48 12.3 °C 9.8 °C 1019.5 hPa SSE 6.4 km/h 12.9 km/h 85 % 0 mm 392 W/m2
09:50 12.4 °C 9.9 °C 1019.5 hPa SSE 4.8 km/h 9.7 km/h 85 % 0 mm 403 W/m2
09:55 12.6 °C 9.9 °C 1019.5 hPa SSW 4.8 km/h 12.9 km/h 84 % 0 mm 417 W/m2
10:00 12.8 °C 10.2 °C 1019.5 hPa SSW 6.4 km/h 12.9 km/h 84 % 0 mm 427 W/m2
10:05 12.9 °C 10.1 °C 1019.5 hPa SSW 6.4 km/h 12.9 km/h 83 % 0 mm 439 W/m2
10:10 13.1 °C 10.1 °C 1019.5 hPa SSW 6.4 km/h 12.9 km/h 82 % 0 mm 450 W/m2
10:15 13.2 °C 10.2 °C 1019.5 hPa SSW 6.4 km/h 16.1 km/h 82 % 0 mm 459 W/m2
10:20 13.4 °C 10.2 °C 1019.5 hPa SSE 8 km/h 16.1 km/h 81 % 0 mm 471 W/m2
10:25 13.6 °C 10.2 °C 1019.2 hPa SE 8 km/h 12.9 km/h 80 % 0 mm 490 W/m2
10:30 13.7 °C 10.3 °C 1019.2 hPa SE 3.2 km/h 11.3 km/h 80 % 0 mm 520 W/m2
10:35 13.9 °C 10.3 °C 1019.2 hPa South 4.8 km/h 14.5 km/h 79 % 0 mm 506 W/m2
10:40 14.1 °C 10.5 °C 1019.2 hPa South 8 km/h 14.5 km/h 79 % 0 mm 515 W/m2
10:45 14.3 °C 10.3 °C 1019.2 hPa South 11.3 km/h 22.5 km/h 77 % 0 mm 526 W/m2
10:50 14.3 °C 10.3 °C 1018.8 hPa SSW 14.5 km/h 22.5 km/h 77 % 0 mm 534 W/m2
10:55 14.4 °C 10.4 °C 1019.2 hPa SSW 12.9 km/h 22.5 km/h 77 % 0 mm 545 W/m2
11:00 14.4 °C 10.2 °C 1018.8 hPa SSW 14.5 km/h 25.7 km/h 76 % 0 mm 605 W/m2
11:05 14.4 °C 10.2 °C 1018.8 hPa SW 16.1 km/h 25.7 km/h 76 % 0 mm 564 W/m2
11:10 14.3 °C 10.1 °C 1019.2 hPa SW 16.1 km/h 29 km/h 76 % 0 mm 603 W/m2
11:16 14.3 °C 9.9 °C 1018.8 hPa SSW 17.7 km/h 29 km/h 75 % 0 mm 599 W/m2
11:21 14.5 °C 10.1 °C 1019.2 hPa SSW 17.7 km/h 29 km/h 75 % 0 mm 598 W/m2
11:26 14.6 °C 10.2 °C 1019.2 hPa SW 16.1 km/h 29 km/h 75 % 0 mm 128 W/m2
11:31 14.7 °C 10.1 °C 1018.8 hPa SSW 16.1 km/h 25.7 km/h 74 % 0 mm 160 W/m2
11:36 14.8 °C 10.2 °C 1018.8 hPa SSW 14.5 km/h 25.7 km/h 74 % 0 mm 612 W/m2
11:41 15.1 °C 10.5 °C 1018.8 hPa SSW 12.9 km/h 24.1 km/h 74 % 0 mm 617 W/m2
11:46 15.2 °C 10 °C 1018.8 hPa SSW 14.5 km/h 25.7 km/h 71 % 0 mm 626 W/m2
11:51 15.4 °C 10.4 °C 1018.8 hPa SSW 12.9 km/h 25.7 km/h 72 % 0 mm 628 W/m2
11:56 15.6 °C 10.3 °C 1018.8 hPa SW 14.5 km/h 24.1 km/h 71 % 0 mm 650 W/m2
12:01 15.6 °C 10.2 °C 1018.8 hPa SSW 14.5 km/h 24.1 km/h 70 % 0 mm 668 W/m2
12:06 15.8 °C 10.1 °C 1018.8 hPa SSW 12.9 km/h 22.5 km/h 69 % 0 mm 680 W/m2
12:11 15.8 °C 10.3 °C 1018.5 hPa SSW 12.9 km/h 22.5 km/h 70 % 0 mm 664 W/m2
12:13 15.9 °C 10.7 °C 1018.8 hPa SSW 12.9 km/h 22.5 km/h 71 % 0 mm 666 W/m2
12:18 16.1 °C 10.6 °C 1018.5 hPa SSW 12.9 km/h 24.1 km/h 70 % 0 mm 666 W/m2
12:23 16.1 °C 9.9 °C 1018.5 hPa SSW 16.1 km/h 25.7 km/h 67 % 0 mm 664 W/m2
12:28 16.1 °C 10.2 °C 1018.5 hPa SSW 16.1 km/h 25.7 km/h 68 % 0 mm 661 W/m2
12:33 16.2 °C 10.1 °C 1018.5 hPa South 16.1 km/h 35.4 km/h 67 % 0 mm 663 W/m2
12:38 16.1 °C 9.5 °C 1018.5 hPa SSW 19.3 km/h 35.4 km/h 65 % 0 mm 673 W/m2
12:43 16.1 °C 9.3 °C 1018.5 hPa SSW 20.9 km/h 37 km/h 64 % 0 mm 684 W/m2
12:48 16.3 °C 9.5 °C 1018.2 hPa SSW 17.7 km/h 37 km/h 64 % 0 mm 680 W/m2
12:53 16.2 °C 9.2 °C 1018.5 hPa South 17.7 km/h 35.4 km/h 63 % 0 mm 434 W/m2
12:54 16.2 °C 9.2 °C 1018.2 hPa South 17.7 km/h 35.4 km/h 63 % 0 mm 339 W/m2
12:59 16 °C 8.9 °C 1018.5 hPa South 17.7 km/h 33.8 km/h 63 % 0 mm 227 W/m2
13:04 15.8 °C 8.8 °C 1018.2 hPa SSW 17.7 km/h 32.2 km/h 63 % 0 mm 211 W/m2
13:09 15.6 °C 9.1 °C 1018.5 hPa SSW 16.1 km/h 32.2 km/h 65 % 0 mm 160 W/m2
13:14 15.3 °C 8.5 °C 1018.5 hPa SSW 17.7 km/h 30.6 km/h 64 % 0 mm 142 W/m2
13:19 15.2 °C 8.9 °C 1018.5 hPa SSW 16.1 km/h 30.6 km/h 66 % 0 mm 183 W/m2
13:24 15.2 °C 9.1 °C 1018.5 hPa SSW 14.5 km/h 22.5 km/h 67 % 0 mm 413 W/m2
13:29 15.3 °C 9 °C 1018.5 hPa SSW 12.9 km/h 22.5 km/h 66 % 0 mm 366 W/m2
13:34 15.4 °C 9.1 °C 1018.5 hPa SSW 14.5 km/h 22.5 km/h 66 % 0 mm 292 W/m2
13:39 15.4 °C 8.8 °C 1018.2 hPa SSW 14.5 km/h 22.5 km/h 65 % 0 mm 248 W/m2
13:44 15.4 °C 9.1 °C 1018.2 hPa SSW 14.5 km/h 24.1 km/h 66 % 0 mm 227 W/m2
13:49 15.4 °C 9.1 °C 1018.2 hPa SSW 12.9 km/h 24.1 km/h 66 % 0 mm 204 W/m2
13:54 15.4 °C 9.3 °C 1018.2 hPa SSW 12.9 km/h 22.5 km/h 67 % 0 mm 257 W/m2
13:59 15.5 °C 9.4 °C 1018.2 hPa SSW 12.9 km/h 22.5 km/h 67 % 0 mm 271 W/m2
14:04 15.6 °C 9.3 °C 1018.2 hPa South 12.9 km/h 20.9 km/h 66 % 0 mm 285 W/m2
14:10 15.7 °C 8.9 °C 1018.2 hPa SSW 14.5 km/h 25.7 km/h 64 % 0 mm 492 W/m2
14:14 15.9 °C 9.1 °C 1018.2 hPa SSW 16.1 km/h 30.6 km/h 64 % 0 mm 450 W/m2
14:20 16.2 °C 9.6 °C 1018.2 hPa SSW 16.1 km/h 30.6 km/h 65 % 0 mm 512 W/m2
14:25 16.4 °C 9.1 °C 1018.2 hPa South 14.5 km/h 25.7 km/h 62 % 0 mm 334 W/m2
14:30 16.5 °C 9.4 °C 1018.2 hPa South 14.5 km/h 24.1 km/h 63 % 0 mm 352 W/m2
14:35 16.6 °C 9.8 °C 1018.2 hPa SSW 16.1 km/h 29 km/h 64 % 0 mm 320 W/m2
14:40 16.6 °C 9.5 °C 1018.2 hPa SSW 16.1 km/h 29 km/h 63 % 0 mm 193 W/m2
14:45 16.6 °C 9.5 °C 1018.2 hPa South 12.9 km/h 24.1 km/h 63 % 0 mm 169 W/m2
14:50 16.4 °C 9.6 °C 1018.2 hPa South 12.9 km/h 25.7 km/h 64 % 0 mm 193 W/m2
14:55 16.3 °C 9.5 °C 1018.2 hPa SSW 14.5 km/h 25.7 km/h 64 % 0 mm 183 W/m2
15:00 16.2 °C 8.9 °C 1018.2 hPa SSW 16.1 km/h 25.7 km/h 62 % 0 mm 169 W/m2
15:05 16.1 °C 8.3 °C 1018.2 hPa SSW 17.7 km/h 33.8 km/h 60 % 0 mm 130 W/m2
15:10 16 °C 8.2 °C 1018.5 hPa SSW 17.7 km/h 33.8 km/h 60 % 0 mm 120 W/m2
15:15 15.9 °C 8.4 °C 1018.2 hPa SW 17.7 km/h 30.6 km/h 61 % 0 mm 102 W/m2
15:20 15.8 °C 8.6 °C 1018.2 hPa SW 16.1 km/h 30.6 km/h 62 % 0 mm 100 W/m2
15:25 15.8 °C 8.8 °C 1018.2 hPa SW 12.9 km/h 22.5 km/h 63 % 0 mm 105 W/m2
15:30 15.7 °C 8.7 °C 1018.5 hPa SW 12.9 km/h 19.3 km/h 63 % 0 mm 76 W/m2
15:35 15.7 °C 8.9 °C 1018.5 hPa SSW 12.9 km/h 20.9 km/h 64 % 0 mm 62 W/m2
15:40 15.6 °C 9.5 °C 1018.5 hPa SSW 11.3 km/h 20.9 km/h 67 % 0 mm 54 W/m2
15:45 15.4 °C 9.5 °C 1018.2 hPa SSW 11.3 km/h 30.6 km/h 68 % 0 mm 46 W/m2
15:50 15.2 °C 10 °C 1018.5 hPa SSW 14.5 km/h 30.6 km/h 71 % 0.25 mm 26 W/m2
15:55 14.8 °C 10 °C 1018.5 hPa SSW 16.1 km/h 25.7 km/h 73 % 0.25 mm 33 W/m2
16:00 14.6 °C 10.6 °C 1018.2 hPa SSW 12.9 km/h 25.7 km/h 77 % 0.51 mm 62 W/m2
16:05 14.3 °C 10.5 °C 1018.2 hPa South 9.7 km/h 17.7 km/h 78 % 0.51 mm 100 W/m2
16:10 14 °C 10.6 °C 1018.2 hPa South 11.3 km/h 19.3 km/h 80 % 0.51 mm 100 W/m2
16:15 13.9 °C 10.7 °C 1018.5 hPa South 9.7 km/h 19.3 km/h 81 % 0.51 mm 90 W/m2
16:20 13.8 °C 10.8 °C 1018.5 hPa SSW 8 km/h 17.7 km/h 82 % 0.51 mm 54 W/m2
16:25 13.7 °C 11.1 °C 1018.2 hPa SSW 4.8 km/h 12.9 km/h 84 % 0.76 mm 40 W/m2
16:30 13.6 °C 11.1 °C 1018.2 hPa SSW 3.2 km/h 11.3 km/h 85 % 0.76 mm 44 W/m2
16:35 13.4 °C 10.9 °C 1018.2 hPa SSE 4.8 km/h 9.7 km/h 85 % 0.76 mm 51 W/m2
16:40 13.4 °C 11.1 °C 1018.2 hPa ESE 8 km/h 16.1 km/h 86 % 0.76 mm 49 W/m2
16:45 13.3 °C 11 °C 1018.2 hPa SE 9.7 km/h 17.7 km/h 86 % 0.76 mm 63 W/m2
16:50 13.2 °C 10.9 °C 1018.2 hPa SE 11.3 km/h 17.7 km/h 86 % 0.51 mm 102 W/m2
16:55 13.2 °C 10.9 °C 1018.2 hPa SE 9.7 km/h 17.7 km/h 86 % 0.51 mm 253 W/m2
17:00 13.2 °C 11.1 °C 1017.8 hPa SE 9.7 km/h 16.1 km/h 87 % 0.51 mm 209 W/m2
17:05 13.3 °C 11.2 °C 1017.8 hPa SE 9.7 km/h 14.5 km/h 87 % 0.25 mm 134 W/m2
17:10 13.3 °C 11.2 °C 1017.8 hPa SE 9.7 km/h 14.5 km/h 87 % 0.25 mm 91 W/m2
17:15 13.4 °C 11.3 °C 1017.8 hPa SE 8 km/h 14.5 km/h 87 % 0.25 mm 77 W/m2
17:20 13.4 °C 11.3 °C 1017.8 hPa SE 6.4 km/h 12.9 km/h 87 % 0 mm 91 W/m2
17:25 13.4 °C 11.3 °C 1017.8 hPa ESE 6.4 km/h 14.5 km/h 87 % 0 mm 84 W/m2
17:30 13.5 °C 11.4 °C 1017.8 hPa SE 8 km/h 14.5 km/h 87 % 0 mm 56 W/m2
17:35 13.4 °C 11.3 °C 1017.8 hPa SE 8 km/h 16.1 km/h 87 % 0 mm 51 W/m2
17:40 13.4 °C 11.1 °C 1017.8 hPa SE 9.7 km/h 16.1 km/h 86 % 0 mm 88 W/m2
17:45 13.5 °C 11.2 °C 1017.8 hPa SE 9.7 km/h 16.1 km/h 86 % 0 mm 60 W/m2
17:50 13.5 °C 11.2 °C 1017.8 hPa ESE 9.7 km/h 14.5 km/h 86 % 0 mm 51 W/m2
17:55 13.5 °C 11.2 °C 1017.8 hPa ESE 9.7 km/h 14.5 km/h 86 % 0 mm 88 W/m2
18:00 13.6 °C 11.1 °C 1017.8 hPa SE 11.3 km/h 19.3 km/h 85 % 0 mm 62 W/m2
18:05 13.6 °C 11.1 °C 1017.8 hPa SE 11.3 km/h 19.3 km/h 85 % 0 mm 118 W/m2
18:10 13.6 °C 11.1 °C 1017.8 hPa SE 11.3 km/h 17.7 km/h 85 % 0 mm 98 W/m2
18:15 13.7 °C 11.2 °C 1017.8 hPa SE 9.7 km/h 17.7 km/h 85 % 0 mm 91 W/m2
18:20 13.7 °C 11.1 °C 1017.8 hPa SE 8 km/h 17.7 km/h 84 % 0 mm 42 W/m2
18:25 13.7 °C 11.1 °C 1017.8 hPa SSE 11.3 km/h 19.3 km/h 84 % 0 mm 23 W/m2
18:30 13.7 °C 10.9 °C 1017.8 hPa SSE 11.3 km/h 19.3 km/h 83 % 0 mm 14 W/m2
18:31 13.7 °C 10.9 °C 1017.8 hPa SSE 11.3 km/h 19.3 km/h 83 % 0 mm 14 W/m2
18:36 13.7 °C 11.1 °C 1017.8 hPa SE 9.7 km/h 16.1 km/h 84 % 0 mm 9 W/m2
18:41 13.6 °C 10.9 °C 1017.8 hPa SE 9.7 km/h 17.7 km/h 84 % 0 mm 7 W/m2
18:46 13.6 °C 10.9 °C 1017.8 hPa SE 8 km/h 17.7 km/h 84 % 0 mm 7 W/m2
18:51 13.5 °C 11 °C 1017.8 hPa SE 9.7 km/h 14.5 km/h 85 % 0 mm 7 W/m2
18:56 13.4 °C 10.8 °C 1017.8 hPa SE 9.7 km/h 16.1 km/h 84 % 0 mm 7 W/m2
19:01 13.4 °C 10.8 °C 1017.8 hPa SE 11.3 km/h 19.3 km/h 84 % 0 mm 5 W/m2
19:06 13.4 °C 10.9 °C 1017.8 hPa SE 9.7 km/h 19.3 km/h 85 % 0 mm 0 W/m2
19:11 13.3 °C 10.8 °C 1017.8 hPa SE 9.7 km/h 17.7 km/h 85 % 0 mm 0 W/m2
19:16 13.3 °C 10.7 °C 1018.2 hPa SE 9.7 km/h 17.7 km/h 84 % 0 mm 0 W/m2
19:21 13.3 °C 10.8 °C 1018.2 hPa SE 8 km/h 17.7 km/h 85 % 0 mm 0 W/m2
19:26 13.2 °C 10.7 °C 1017.8 hPa SE 6.4 km/h 11.3 km/h 85 % 0 mm 0 W/m2
19:31 13.2 °C 10.7 °C 1017.8 hPa SE 6.4 km/h 11.3 km/h 85 % 0 mm 0 W/m2
19:36 13.2 °C 10.7 °C 1018.2 hPa SE 6.4 km/h 11.3 km/h 85 % 0 mm 0 W/m2
19:41 13.1 °C 10.8 °C 1018.2 hPa SSE 6.4 km/h 11.3 km/h 86 % 0 mm 0 W/m2
19:46 13.1 °C 10.8 °C 1018.2 hPa SSE 6.4 km/h 12.9 km/h 86 % 0 mm 0 W/m2
19:51 13.1 °C 10.8 °C 1018.2 hPa SSE 6.4 km/h 12.9 km/h 86 % 0 mm 0 W/m2
19:56 13.1 °C 11 °C 1018.2 hPa SSE 8 km/h 16.1 km/h 87 % 0 mm 0 W/m2
20:01 13.1 °C 11 °C 1018.2 hPa SSE 8 km/h 16.1 km/h 87 % 0 mm 0 W/m2
20:06 13.1 °C 11 °C 1018.2 hPa SSE 9.7 km/h 17.7 km/h 87 % 0 mm 0 W/m2
20:11 13.1 °C 11 °C 1018.2 hPa SSE 9.7 km/h 17.7 km/h 87 % 0 mm 0 W/m2
20:16 13.1 °C 11.2 °C 1018.2 hPa South 9.7 km/h 17.7 km/h 88 % 0 mm 0 W/m2
20:21 13 °C 11.1 °C 1018.5 hPa South 11.3 km/h 20.9 km/h 88 % 0.25 mm 0 W/m2
20:26 13 °C 11.1 °C 1018.5 hPa South 9.7 km/h 20.9 km/h 88 % 0.25 mm 0 W/m2
20:31 12.9 °C 11.1 °C 1018.5 hPa South 9.7 km/h 17.7 km/h 89 % 0.25 mm 0 W/m2
20:36 12.9 °C 11.1 °C 1018.5 hPa South 9.7 km/h 24.1 km/h 89 % 0.25 mm 0 W/m2
20:41 12.9 °C 11.1 °C 1018.5 hPa South 9.7 km/h 24.1 km/h 89 % 0.25 mm 0 W/m2
20:46 12.9 °C 11.3 °C 1018.5 hPa South 9.7 km/h 17.7 km/h 90 % 0.25 mm 0 W/m2
20:51 12.8 °C 11.2 °C 1018.5 hPa South 11.3 km/h 22.5 km/h 90 % 0.25 mm 0 W/m2
20:56 12.8 °C 11.2 °C 1018.5 hPa South 9.7 km/h 22.5 km/h 90 % 0.25 mm 0 W/m2
21:01 12.8 °C 11.2 °C 1018.5 hPa SSE 9.7 km/h 20.9 km/h 90 % 0.25 mm 0 W/m2
21:06 12.8 °C 11.2 °C 1018.5 hPa SSE 11.3 km/h 20.9 km/h 90 % 0.25 mm 0 W/m2
21:11 12.8 °C 11.2 °C 1018.5 hPa SSE 9.7 km/h 17.7 km/h 90 % 0.25 mm 0 W/m2
21:16 12.7 °C 11.1 °C 1018.5 hPa SSE 9.7 km/h 24.1 km/h 90 % 0.25 mm 0 W/m2
21:21 12.7 °C 11.1 °C 1018.5 hPa SSE 9.7 km/h 24.1 km/h 90 % 0 mm 0 W/m2
21:26 12.7 °C 11.1 °C 1018.5 hPa South 9.7 km/h 19.3 km/h 90 % 0 mm 0 W/m2
21:31 12.7 °C 11.1 °C 1018.5 hPa South 8 km/h 24.1 km/h 90 % 0 mm 0 W/m2
21:36 12.7 °C 11.1 °C 1018.5 hPa South 9.7 km/h 24.1 km/h 90 % 0 mm 0 W/m2
21:41 12.7 °C 11.1 °C 1018.5 hPa South 11.3 km/h 19.3 km/h 90 % 0 mm 0 W/m2
21:46 12.7 °C 11.1 °C 1018.5 hPa South 11.3 km/h 20.9 km/h 90 % 0 mm 0 W/m2
21:51 12.8 °C 11.2 °C 1018.5 hPa South 12.9 km/h 22.5 km/h 90 % 0 mm 0 W/m2
21:57 12.8 °C 11.2 °C 1018.5 hPa South 12.9 km/h 29 km/h 90 % 0 mm 0 W/m2
22:02 12.9 °C 11.3 °C 1018.5 hPa South 16.1 km/h 30.6 km/h 90 % 0 mm 0 W/m2
22:07 13.1 °C 11.3 °C 1018.5 hPa SSW 14.5 km/h 30.6 km/h 89 % 0 mm 0 W/m2
22:12 13.1 °C 11.3 °C 1018.5 hPa SSW 14.5 km/h 24.1 km/h 89 % 0 mm 0 W/m2
22:17 13.1 °C 11.3 °C 1018.5 hPa SSW 14.5 km/h 29 km/h 89 % 0 mm 0 W/m2
22:22 13.2 °C 11.4 °C 1018.5 hPa SSW 14.5 km/h 29 km/h 89 % 0 mm 0 W/m2
22:27 13.2 °C 11.4 °C 1018.5 hPa SSW 12.9 km/h 25.7 km/h 89 % 0 mm 0 W/m2
22:32 13.3 °C 11.5 °C 1018.5 hPa SSW 14.5 km/h 24.1 km/h 89 % 0 mm 0 W/m2
22:37 13.3 °C 11.3 °C 1018.5 hPa SSW 16.1 km/h 30.6 km/h 88 % 0 mm 0 W/m2
22:42 13.3 °C 11.3 °C 1018.5 hPa SSW 16.1 km/h 30.6 km/h 88 % 0 mm 0 W/m2
22:47 13.4 °C 11.4 °C 1018.5 hPa SSW 17.7 km/h 32.2 km/h 88 % 0 mm 0 W/m2
22:52 13.3 °C 11.3 °C 1018.5 hPa SSW 17.7 km/h 32.2 km/h 88 % 0 mm 0 W/m2
23:02 13.3 °C 11.3 °C 1018.5 hPa SSW 17.7 km/h 32.2 km/h 88 % 0 mm 0 W/m2
23:07 13.3 °C 11.3 °C 1018.5 hPa SSW 16.1 km/h 32.2 km/h 88 % 0 mm 0 W/m2
23:12 13.2 °C 11.3 °C 1018.5 hPa SSW 16.1 km/h 24.1 km/h 88 % 0 mm 0 W/m2
23:17 13.1 °C 11.3 °C 1018.5 hPa SSW 14.5 km/h 24.1 km/h 89 % 0 mm 0 W/m2
23:22 13.1 °C 11.3 °C 1018.5 hPa SSW 14.5 km/h 22.5 km/h 89 % 0 mm 0 W/m2
23:27 13.1 °C 11.3 °C 1018.5 hPa SSW 14.5 km/h 24.1 km/h 89 % 0 mm 0 W/m2
23:32 13 °C 11.2 °C 1018.5 hPa SSW 14.5 km/h 24.1 km/h 89 % 0 mm 0 W/m2
23:37 13 °C 11.2 °C 1018.5 hPa SSW 12.9 km/h 24.1 km/h 89 % 0 mm 0 W/m2
23:42 13 °C 11.2 °C 1018.5 hPa SSW 12.9 km/h 22.5 km/h 89 % 0 mm 0 W/m2
23:47 12.9 °C 11.1 °C 1018.5 hPa SSW 12.9 km/h 20.9 km/h 89 % 0 mm 0 W/m2
23:52 12.9 °C 11.3 °C 1018.5 hPa SSW 12.9 km/h 22.5 km/h 90 % 0 mm 0 W/m2
23:57 12.9 °C 11.3 °C 1018.5 hPa SSW 12.9 km/h 22.5 km/h 90 % 0 mm 0 W/m2
Delerius-Weather
Compliments of Weather Underground - 2.25 mb

Data updates at regular intervals.